sensor_id;sensor_type;location;lat;lon;timestamp;P1;durP1;ratioP1;P2;durP2;ratioP2
56830;SDS011;42713;42.676;23.352;2023-04-03T00:00:15;21.13;;;8.32;;
56830;SDS011;42713;42.676;23.352;2023-04-03T00:02:41;19.80;;;8.27;;
56830;SDS011;42713;42.676;23.352;2023-04-03T00:05:07;21.95;;;8.48;;
56830;SDS011;42713;42.676;23.352;2023-04-03T00:07:32;22.02;;;7.93;;
56830;SDS011;42713;42.676;23.352;2023-04-03T00:09:58;18.38;;;8.60;;
56830;SDS011;42713;42.676;23.352;2023-04-03T00:12:23;16.77;;;7.55;;
56830;SDS011;42713;42.676;23.352;2023-04-03T00:14:49;21.13;;;8.13;;
56830;SDS011;42713;42.676;23.352;2023-04-03T00:17:14;19.05;;;7.00;;
56830;SDS011;42713;42.676;23.352;2023-04-03T00:19:40;19.63;;;7.68;;
56830;SDS011;42713;42.676;23.352;2023-04-03T00:22:05;16.70;;;6.72;;
56830;SDS011;42713;42.676;23.352;2023-04-03T00:24:31;14.85;;;6.30;;
56830;SDS011;42713;42.676;23.352;2023-04-03T00:26:56;16.67;;;6.60;;
56830;SDS011;42713;42.676;23.352;2023-04-03T00:29:21;17.08;;;6.93;;
56830;SDS011;42713;42.676;23.352;2023-04-03T00:31:47;17.92;;;7.03;;
56830;SDS011;42713;42.676;23.352;2023-04-03T00:34:12;19.08;;;6.90;;
56830;SDS011;42713;42.676;23.352;2023-04-03T00:36:39;14.38;;;6.35;;
56830;SDS011;42713;42.676;23.352;2023-04-03T00:39:05;13.40;;;5.72;;
56830;SDS011;42713;42.676;23.352;2023-04-03T00:41:30;16.42;;;7.03;;
56830;SDS011;42713;42.676;23.352;2023-04-03T00:43:56;16.35;;;6.10;;
56830;SDS011;42713;42.676;23.352;2023-04-03T00:46:22;17.92;;;6.80;;
56830;SDS011;42713;42.676;23.352;2023-04-03T00:48:48;14.80;;;5.72;;
56830;SDS011;42713;42.676;23.352;2023-04-03T00:51:16;17.35;;;6.53;;
56830;SDS011;42713;42.676;23.352;2023-04-03T00:53:49;19.00;;;6.18;;
56830;SDS011;42713;42.676;23.352;2023-04-03T00:56:19;15.90;;;6.22;;
56830;SDS011;42713;42.676;23.352;2023-04-03T00:58:50;14.40;;;5.90;;
56830;SDS011;42713;42.676;23.352;2023-04-03T01:01:24;12.45;;;5.15;;
56830;SDS011;42713;42.676;23.352;2023-04-03T01:03:51;11.95;;;5.65;;
56830;SDS011;42713;42.676;23.352;2023-04-03T01:06:18;11.57;;;4.38;;
56830;SDS011;42713;42.676;23.352;2023-04-03T01:08:53;11.20;;;4.43;;
56830;SDS011;42713;42.676;23.352;2023-04-03T01:11:20;9.55;;;3.72;;
56830;SDS011;42713;42.676;23.352;2023-04-03T01:13:46;9.18;;;3.47;;
56830;SDS011;42713;42.676;23.352;2023-04-03T01:16:12;12.15;;;4.78;;
56830;SDS011;42713;42.676;23.352;2023-04-03T01:18:38;10.85;;;4.70;;
56830;SDS011;42713;42.676;23.352;2023-04-03T01:26:18;14.25;;;5.22;;
56830;SDS011;42713;42.676;23.352;2023-04-03T01:28:44;15.65;;;5.93;;
56830;SDS011;42713;42.676;23.352;2023-04-03T01:31:15;15.57;;;6.47;;
56830;SDS011;42713;42.676;23.352;2023-04-03T01:33:47;14.10;;;5.40;;
56830;SDS011;42713;42.676;23.352;2023-04-03T01:36:15;12.80;;;5.30;;
56830;SDS011;42713;42.676;23.352;2023-04-03T01:38:43;13.77;;;5.07;;
56830;SDS011;42713;42.676;23.352;2023-04-03T01:41:08;14.93;;;5.28;;
56830;SDS011;42713;42.676;23.352;2023-04-03T01:43:34;17.05;;;6.22;;
56830;SDS011;42713;42.676;23.352;2023-04-03T01:45:59;17.02;;;6.60;;
56830;SDS011;42713;42.676;23.352;2023-04-03T01:48:25;15.55;;;6.65;;
56830;SDS011;42713;42.676;23.352;2023-04-03T01:50:50;20.77;;;6.22;;
56830;SDS011;42713;42.676;23.352;2023-04-03T01:53:16;14.15;;;5.40;;
56830;SDS011;42713;42.676;23.352;2023-04-03T01:55:42;12.68;;;5.20;;
56830;SDS011;42713;42.676;23.352;2023-04-03T01:58:08;15.27;;;5.35;;
56830;SDS011;42713;42.676;23.352;2023-04-03T02:00:34;12.57;;;5.78;;
56830;SDS011;42713;42.676;23.352;2023-04-03T02:02:59;15.52;;;5.35;;
56830;SDS011;42713;42.676;23.352;2023-04-03T02:05:25;14.52;;;6.05;;
56830;SDS011;42713;42.676;23.352;2023-04-03T02:07:50;19.17;;;5.95;;
56830;SDS011;42713;42.676;23.352;2023-04-03T02:10:16;11.50;;;5.18;;
56830;SDS011;42713;42.676;23.352;2023-04-03T02:12:41;13.82;;;4.82;;
56830;SDS011;42713;42.676;23.352;2023-04-03T02:15:07;14.85;;;5.65;;
56830;SDS011;42713;42.676;23.352;2023-04-03T02:17:33;11.93;;;4.60;;
56830;SDS011;42713;42.676;23.352;2023-04-03T02:20:00;17.08;;;5.13;;
56830;SDS011;42713;42.676;23.352;2023-04-03T02:22:25;10.80;;;4.43;;
56830;SDS011;42713;42.676;23.352;2023-04-03T02:24:50;11.05;;;4.20;;
56830;SDS011;42713;42.676;23.352;2023-04-03T02:27:17;11.60;;;5.15;;
56830;SDS011;42713;42.676;23.352;2023-04-03T02:29:43;12.32;;;4.82;;
56830;SDS011;42713;42.676;23.352;2023-04-03T02:32:08;16.60;;;5.22;;
56830;SDS011;42713;42.676;23.352;2023-04-03T02:34:34;13.05;;;5.60;;
56830;SDS011;42713;42.676;23.352;2023-04-03T02:36:59;9.68;;;4.30;;
56830;SDS011;42713;42.676;23.352;2023-04-03T02:39:25;13.27;;;4.50;;
56830;SDS011;42713;42.676;23.352;2023-04-03T02:41:51;11.57;;;4.80;;
56830;SDS011;42713;42.676;23.352;2023-04-03T02:44:16;10.23;;;4.45;;
56830;SDS011;42713;42.676;23.352;2023-04-03T02:46:42;16.35;;;6.95;;
56830;SDS011;42713;42.676;23.352;2023-04-03T02:49:08;16.58;;;6.93;;
56830;SDS011;42713;42.676;23.352;2023-04-03T02:51:33;17.17;;;7.20;;
56830;SDS011;42713;42.676;23.352;2023-04-03T02:53:59;16.00;;;7.07;;
56830;SDS011;42713;42.676;23.352;2023-04-03T02:56:25;16.70;;;7.50;;
56830;SDS011;42713;42.676;23.352;2023-04-03T02:58:52;17.80;;;7.18;;
56830;SDS011;42713;42.676;23.352;2023-04-03T03:01:17;18.25;;;7.18;;
56830;SDS011;42713;42.676;23.352;2023-04-03T03:03:43;12.35;;;5.68;;
56830;SDS011;42713;42.676;23.352;2023-04-03T03:06:10;14.55;;;4.90;;
56830;SDS011;42713;42.676;23.352;2023-04-03T03:08:37;15.38;;;5.20;;
56830;SDS011;42713;42.676;23.352;2023-04-03T03:11:03;16.20;;;6.57;;
56830;SDS011;42713;42.676;23.352;2023-04-03T03:13:30;13.95;;;5.75;;
56830;SDS011;42713;42.676;23.352;2023-04-03T03:15:56;14.20;;;6.22;;
56830;SDS011;42713;42.676;23.352;2023-04-03T03:18:22;14.85;;;5.78;;
56830;SDS011;42713;42.676;23.352;2023-04-03T03:20:52;14.80;;;5.28;;
56830;SDS011;42713;42.676;23.352;2023-04-03T03:23:18;13.95;;;5.88;;
56830;SDS011;42713;42.676;23.352;2023-04-03T03:25:43;16.20;;;5.75;;
56830;SDS011;42713;42.676;23.352;2023-04-03T03:28:09;15.70;;;6.10;;
56830;SDS011;42713;42.676;23.352;2023-04-03T03:30:34;16.70;;;6.20;;
56830;SDS011;42713;42.676;23.352;2023-04-03T03:33:00;17.88;;;7.03;;
56830;SDS011;42713;42.676;23.352;2023-04-03T03:35:26;17.88;;;6.60;;
56830;SDS011;42713;42.676;23.352;2023-04-03T03:37:51;16.65;;;6.22;;
56830;SDS011;42713;42.676;23.352;2023-04-03T03:40:17;12.68;;;6.28;;
56830;SDS011;42713;42.676;23.352;2023-04-03T03:42:42;17.77;;;6.22;;
56830;SDS011;42713;42.676;23.352;2023-04-03T03:45:08;16.42;;;6.85;;
56830;SDS011;42713;42.676;23.352;2023-04-03T03:47:34;17.17;;;6.70;;
56830;SDS011;42713;42.676;23.352;2023-04-03T03:50:00;17.40;;;7.07;;
56830;SDS011;42713;42.676;23.352;2023-04-03T03:52:26;15.65;;;6.47;;
56830;SDS011;42713;42.676;23.352;2023-04-03T03:54:51;23.73;;;7.45;;
56830;SDS011;42713;42.676;23.352;2023-04-03T03:57:17;23.70;;;7.32;;
56830;SDS011;42713;42.676;23.352;2023-04-03T03:59:42;20.13;;;7.30;;
56830;SDS011;42713;42.676;23.352;2023-04-03T04:02:09;15.52;;;6.63;;
56830;SDS011;42713;42.676;23.352;2023-04-03T04:04:35;17.60;;;6.50;;
56830;SDS011;42713;42.676;23.352;2023-04-03T04:07:01;20.42;;;7.90;;
56830;SDS011;42713;42.676;23.352;2023-04-03T04:09:27;18.70;;;7.22;;
56830;SDS011;42713;42.676;23.352;2023-04-03T04:11:52;18.85;;;6.68;;
56830;SDS011;42713;42.676;23.352;2023-04-03T04:14:18;18.70;;;7.75;;
56830;SDS011;42713;42.676;23.352;2023-04-03T04:16:45;15.93;;;6.05;;
56830;SDS011;42713;42.676;23.352;2023-04-03T04:19:11;22.50;;;7.38;;
56830;SDS011;42713;42.676;23.352;2023-04-03T04:21:37;16.25;;;6.03;;
56830;SDS011;42713;42.676;23.352;2023-04-03T04:24:03;19.20;;;6.80;;
56830;SDS011;42713;42.676;23.352;2023-04-03T04:26:28;17.58;;;6.95;;
56830;SDS011;42713;42.676;23.352;2023-04-03T04:28:54;21.48;;;7.00;;
56830;SDS011;42713;42.676;23.352;2023-04-03T04:31:19;20.75;;;8.38;;
56830;SDS011;42713;42.676;23.352;2023-04-03T04:33:45;22.98;;;7.75;;
56830;SDS011;42713;42.676;23.352;2023-04-03T04:36:10;16.23;;;7.50;;
56830;SDS011;42713;42.676;23.352;2023-04-03T04:38:35;17.83;;;7.47;;
56830;SDS011;42713;42.676;23.352;2023-04-03T04:41:01;18.85;;;8.77;;
56830;SDS011;42713;42.676;23.352;2023-04-03T04:43:26;18.83;;;8.68;;
56830;SDS011;42713;42.676;23.352;2023-04-03T04:46:08;16.83;;;6.97;;
56830;SDS011;42713;42.676;23.352;2023-04-03T04:48:36;23.20;;;8.23;;
56830;SDS011;42713;42.676;23.352;2023-04-03T04:51:02;14.77;;;6.43;;
56830;SDS011;42713;42.676;23.352;2023-04-03T04:53:28;20.80;;;6.43;;
56830;SDS011;42713;42.676;23.352;2023-04-03T04:55:54;17.80;;;7.25;;
56830;SDS011;42713;42.676;23.352;2023-04-03T04:58:19;19.15;;;6.90;;
56830;SDS011;42713;42.676;23.352;2023-04-03T05:00:45;22.02;;;7.07;;
56830;SDS011;42713;42.676;23.352;2023-04-03T05:03:11;17.52;;;6.32;;
56830;SDS011;42713;42.676;23.352;2023-04-03T05:05:36;17.00;;;6.75;;
56830;SDS011;42713;42.676;23.352;2023-04-03T05:08:02;16.88;;;7.03;;
56830;SDS011;42713;42.676;23.352;2023-04-03T05:10:29;17.30;;;6.38;;
56830;SDS011;42713;42.676;23.352;2023-04-03T05:12:55;15.98;;;6.82;;
56830;SDS011;42713;42.676;23.352;2023-04-03T05:15:21;19.20;;;7.32;;
56830;SDS011;42713;42.676;23.352;2023-04-03T05:17:47;18.85;;;7.22;;
56830;SDS011;42713;42.676;23.352;2023-04-03T05:20:12;15.38;;;6.00;;
56830;SDS011;42713;42.676;23.352;2023-04-03T05:22:38;15.30;;;7.53;;
56830;SDS011;42713;42.676;23.352;2023-04-03T05:25:04;20.70;;;7.80;;
56830;SDS011;42713;42.676;23.352;2023-04-03T05:27:30;20.77;;;7.78;;
56830;SDS011;42713;42.676;23.352;2023-04-03T05:29:56;18.98;;;7.28;;
56830;SDS011;42713;42.676;23.352;2023-04-03T05:32:22;17.63;;;7.20;;
56830;SDS011;42713;42.676;23.352;2023-04-03T05:34:48;20.38;;;6.85;;
56830;SDS011;42713;42.676;23.352;2023-04-03T05:37:13;19.75;;;6.53;;
56830;SDS011;42713;42.676;23.352;2023-04-03T05:39:38;21.08;;;7.13;;
56830;SDS011;42713;42.676;23.352;2023-04-03T05:42:06;15.65;;;6.75;;
56830;SDS011;42713;42.676;23.352;2023-04-03T05:44:32;20.27;;;9.20;;
56830;SDS011;42713;42.676;23.352;2023-04-03T05:46:57;18.17;;;7.20;;
56830;SDS011;42713;42.676;23.352;2023-04-03T05:49:23;17.20;;;6.80;;
56830;SDS011;42713;42.676;23.352;2023-04-03T05:51:49;16.42;;;6.47;;
56830;SDS011;42713;42.676;23.352;2023-04-03T05:54:22;23.08;;;7.45;;
56830;SDS011;42713;42.676;23.352;2023-04-03T05:56:50;24.33;;;8.40;;
56830;SDS011;42713;42.676;23.352;2023-04-03T05:59:16;22.63;;;8.65;;
56830;SDS011;42713;42.676;23.352;2023-04-03T06:01:42;32.33;;;10.02;;
56830;SDS011;42713;42.676;23.352;2023-04-03T06:04:08;26.00;;;10.25;;
56830;SDS011;42713;42.676;23.352;2023-04-03T06:06:53;31.42;;;11.40;;
56830;SDS011;42713;42.676;23.352;2023-04-03T06:09:24;23.20;;;10.40;;
56830;SDS011;42713;42.676;23.352;2023-04-03T06:11:51;31.10;;;10.05;;
56830;SDS011;42713;42.676;23.352;2023-04-03T06:14:17;28.58;;;11.05;;
56830;SDS011;42713;42.676;23.352;2023-04-03T06:16:43;32.80;;;10.88;;
56830;SDS011;42713;42.676;23.352;2023-04-03T06:19:10;29.88;;;10.95;;
56830;SDS011;42713;42.676;23.352;2023-04-03T06:21:36;24.63;;;11.13;;
56830;SDS011;42713;42.676;23.352;2023-04-03T06:24:05;25.13;;;9.18;;
56830;SDS011;42713;42.676;23.352;2023-04-03T06:26:31;19.23;;;8.90;;
56830;SDS011;42713;42.676;23.352;2023-04-03T06:28:58;21.08;;;8.30;;
56830;SDS011;42713;42.676;23.352;2023-04-03T06:31:23;17.95;;;8.85;;
56830;SDS011;42713;42.676;23.352;2023-04-03T06:33:49;26.02;;;9.00;;
56830;SDS011;42713;42.676;23.352;2023-04-03T06:36:15;27.42;;;9.35;;
56830;SDS011;42713;42.676;23.352;2023-04-03T06:38:44;23.48;;;9.65;;
56830;SDS011;42713;42.676;23.352;2023-04-03T06:41:10;22.30;;;8.60;;
56830;SDS011;42713;42.676;23.352;2023-04-03T06:43:36;26.30;;;10.18;;
56830;SDS011;42713;42.676;23.352;2023-04-03T06:46:01;25.00;;;9.60;;
56830;SDS011;42713;42.676;23.352;2023-04-03T06:48:27;21.70;;;9.45;;
56830;SDS011;42713;42.676;23.352;2023-04-03T06:50:53;24.33;;;9.35;;
56830;SDS011;42713;42.676;23.352;2023-04-03T06:53:18;23.27;;;9.38;;
56830;SDS011;42713;42.676;23.352;2023-04-03T06:55:44;20.48;;;10.25;;
56830;SDS011;42713;42.676;23.352;2023-04-03T06:58:10;31.33;;;13.07;;
56830;SDS011;42713;42.676;23.352;2023-04-03T07:00:35;31.77;;;12.13;;
56830;SDS011;42713;42.676;23.352;2023-04-03T07:03:01;27.40;;;12.85;;
56830;SDS011;42713;42.676;23.352;2023-04-03T07:05:29;29.60;;;12.27;;
56830;SDS011;42713;42.676;23.352;2023-04-03T07:07:54;23.08;;;12.38;;
56830;SDS011;42713;42.676;23.352;2023-04-03T07:10:20;32.13;;;12.18;;
56830;SDS011;42713;42.676;23.352;2023-04-03T07:12:45;28.23;;;10.50;;
56830;SDS011;42713;42.676;23.352;2023-04-03T07:15:11;23.05;;;9.90;;
56830;SDS011;42713;42.676;23.352;2023-04-03T07:17:38;24.42;;;10.88;;
56830;SDS011;42713;42.676;23.352;2023-04-03T07:20:04;25.92;;;9.43;;
56830;SDS011;42713;42.676;23.352;2023-04-03T07:22:30;21.27;;;9.10;;
56830;SDS011;42713;42.676;23.352;2023-04-03T07:24:55;21.60;;;9.38;;
56830;SDS011;42713;42.676;23.352;2023-04-03T07:27:21;18.40;;;9.15;;
56830;SDS011;42713;42.676;23.352;2023-04-03T07:29:47;19.23;;;9.00;;
56830;SDS011;42713;42.676;23.352;2023-04-03T07:32:13;33.22;;;9.95;;
56830;SDS011;42713;42.676;23.352;2023-04-03T07:34:39;29.48;;;9.15;;
56830;SDS011;42713;42.676;23.352;2023-04-03T07:37:05;28.60;;;9.80;;
56830;SDS011;42713;42.676;23.352;2023-04-03T07:39:31;15.10;;;8.50;;
56830;SDS011;42713;42.676;23.352;2023-04-03T07:41:57;18.08;;;8.45;;
56830;SDS011;42713;42.676;23.352;2023-04-03T07:44:23;25.40;;;8.07;;
56830;SDS011;42713;42.676;23.352;2023-04-03T07:46:48;19.50;;;8.13;;
56830;SDS011;42713;42.676;23.352;2023-04-03T07:49:15;23.50;;;9.55;;
56830;SDS011;42713;42.676;23.352;2023-04-03T07:51:43;21.30;;;7.63;;
56830;SDS011;42713;42.676;23.352;2023-04-03T07:54:11;24.30;;;10.35;;
56830;SDS011;42713;42.676;23.352;2023-04-03T07:56:37;27.98;;;12.02;;
56830;SDS011;42713;42.676;23.352;2023-04-03T07:59:02;29.02;;;13.02;;
56830;SDS011;42713;42.676;23.352;2023-04-03T08:01:28;32.33;;;13.60;;
56830;SDS011;42713;42.676;23.352;2023-04-03T08:03:53;30.05;;;13.25;;
56830;SDS011;42713;42.676;23.352;2023-04-03T08:06:19;35.25;;;14.45;;
56830;SDS011;42713;42.676;23.352;2023-04-03T08:08:44;29.52;;;13.75;;
56830;SDS011;42713;42.676;23.352;2023-04-03T08:11:11;27.60;;;13.30;;
56830;SDS011;42713;42.676;23.352;2023-04-03T08:13:36;31.38;;;13.18;;
56830;SDS011;42713;42.676;23.352;2023-04-03T08:16:13;31.52;;;14.35;;
56830;SDS011;42713;42.676;23.352;2023-04-03T08:18:42;24.10;;;12.90;;
56830;SDS011;42713;42.676;23.352;2023-04-03T08:21:09;30.42;;;14.02;;
56830;SDS011;42713;42.676;23.352;2023-04-03T08:23:35;28.15;;;13.57;;
56830;SDS011;42713;42.676;23.352;2023-04-03T08:26:05;26.67;;;13.02;;
56830;SDS011;42713;42.676;23.352;2023-04-03T08:28:32;33.70;;;13.30;;
56830;SDS011;42713;42.676;23.352;2023-04-03T08:31:01;39.03;;;13.98;;
56830;SDS011;42713;42.676;23.352;2023-04-03T08:33:29;34.47;;;13.35;;
56830;SDS011;42713;42.676;23.352;2023-04-03T08:35:54;29.58;;;13.40;;
56830;SDS011;42713;42.676;23.352;2023-04-03T08:38:20;29.35;;;13.30;;
56830;SDS011;42713;42.676;23.352;2023-04-03T08:40:45;33.10;;;13.95;;
56830;SDS011;42713;42.676;23.352;2023-04-03T08:46:01;29.07;;;12.30;;
56830;SDS011;42713;42.676;23.352;2023-04-03T08:48:32;27.15;;;13.93;;
56830;SDS011;42713;42.676;23.352;2023-04-03T08:51:02;25.73;;;13.52;;
56830;SDS011;42713;42.676;23.352;2023-04-03T08:53:37;29.60;;;12.88;;
56830;SDS011;42713;42.676;23.352;2023-04-03T08:56:07;29.25;;;13.48;;
56830;SDS011;42713;42.676;23.352;2023-04-03T09:01:23;28.63;;;13.23;;
56830;SDS011;42713;42.676;23.352;2023-04-03T09:03:52;30.40;;;11.35;;
56830;SDS011;42713;42.676;23.352;2023-04-03T09:11:46;21.02;;;9.85;;
56830;SDS011;42713;42.676;23.352;2023-04-03T09:14:38;23.63;;;11.20;;
56830;SDS011;42713;42.676;23.352;2023-04-03T09:22:43;21.73;;;10.38;;
56830;SDS011;42713;42.676;23.352;2023-04-03T09:27:41;25.38;;;11.18;;
56830;SDS011;42713;42.676;23.352;2023-04-03T09:30:28;24.23;;;10.15;;
56830;SDS011;42713;42.676;23.352;2023-04-03T09:32:54;25.30;;;9.77;;
56830;SDS011;42713;42.676;23.352;2023-04-03T09:35:25;20.95;;;10.02;;
56830;SDS011;42713;42.676;23.352;2023-04-03T09:40:40;27.15;;;10.55;;
56830;SDS011;42713;42.676;23.352;2023-04-03T09:45:42;28.83;;;9.88;;
56830;SDS011;42713;42.676;23.352;2023-04-03T09:50:38;29.35;;;11.52;;
56830;SDS011;42713;42.676;23.352;2023-04-03T09:53:40;27.58;;;10.10;;
56830;SDS011;42713;42.676;23.352;2023-04-03T09:58:39;23.38;;;10.38;;
56830;SDS011;42713;42.676;23.352;2023-04-03T10:01:06;19.23;;;9.80;;
56830;SDS011;42713;42.676;23.352;2023-04-03T10:03:45;22.33;;;9.73;;
56830;SDS011;42713;42.676;23.352;2023-04-03T10:06:24;22.08;;;9.52;;
56830;SDS011;42713;42.676;23.352;2023-04-03T10:08:59;21.20;;;8.63;;
56830;SDS011;42713;42.676;23.352;2023-04-03T10:11:30;20.33;;;7.65;;
56830;SDS011;42713;42.676;23.352;2023-04-03T10:13:57;17.67;;;7.72;;
56830;SDS011;42713;42.676;23.352;2023-04-03T10:16:47;20.40;;;8.00;;
56830;SDS011;42713;42.676;23.352;2023-04-03T10:22:08;13.43;;;6.55;;
56830;SDS011;42713;42.676;23.352;2023-04-03T10:24:47;19.15;;;6.93;;
56830;SDS011;42713;42.676;23.352;2023-04-03T10:27:23;16.92;;;6.97;;
56830;SDS011;42713;42.676;23.352;2023-04-03T10:30:29;26.77;;;7.03;;
56830;SDS011;42713;42.676;23.352;2023-04-03T10:33:04;18.88;;;6.93;;
56830;SDS011;42713;42.676;23.352;2023-04-03T10:35:46;21.95;;;6.40;;
56830;SDS011;42713;42.676;23.352;2023-04-03T10:45:06;18.27;;;5.97;;
56830;SDS011;42713;42.676;23.352;2023-04-03T10:47:20;12.70;;;5.32;;
56830;SDS011;42713;42.676;23.352;2023-04-03T10:52:35;15.55;;;5.20;;
56830;SDS011;42713;42.676;23.352;2023-04-03T10:57:52;16.70;;;4.53;;
56830;SDS011;42713;42.676;23.352;2023-04-03T11:00:29;17.03;;;4.70;;
56830;SDS011;42713;42.676;23.352;2023-04-03T11:03:02;20.33;;;5.55;;
56830;SDS011;42713;42.676;23.352;2023-04-03T11:05:32;11.40;;;4.38;;
56830;SDS011;42713;42.676;23.352;2023-04-03T11:08:05;9.88;;;3.42;;
56830;SDS011;42713;42.676;23.352;2023-04-03T11:10:42;9.48;;;3.53;;
56830;SDS011;42713;42.676;23.352;2023-04-03T11:13:19;11.95;;;3.13;;
56830;SDS011;42713;42.676;23.352;2023-04-03T11:15:52;11.88;;;2.90;;
56830;SDS011;42713;42.676;23.352;2023-04-03T11:18:25;8.10;;;3.17;;
56830;SDS011;42713;42.676;23.352;2023-04-03T11:21:05;8.90;;;2.50;;
56830;SDS011;42713;42.676;23.352;2023-04-03T11:23:39;8.67;;;2.70;;
56830;SDS011;42713;42.676;23.352;2023-04-03T11:26:12;7.45;;;2.88;;
56830;SDS011;42713;42.676;23.352;2023-04-03T11:28:41;7.43;;;2.53;;
56830;SDS011;42713;42.676;23.352;2023-04-03T11:36:31;7.47;;;2.65;;
56830;SDS011;42713;42.676;23.352;2023-04-03T11:39:17;7.30;;;2.42;;
56830;SDS011;42713;42.676;23.352;2023-04-03T11:47:02;10.18;;;2.65;;
56830;SDS011;42713;42.676;23.352;2023-04-03T12:13:36;8.35;;;2.40;;
56830;SDS011;42713;42.676;23.352;2023-04-03T12:16:05;6.63;;;2.08;;
56830;SDS011;42713;42.676;23.352;2023-04-03T12:21:08;7.93;;;2.30;;
56830;SDS011;42713;42.676;23.352;2023-04-03T12:23:36;8.20;;;2.65;;
56830;SDS011;42713;42.676;23.352;2023-04-03T12:26:21;8.10;;;2.40;;
56830;SDS011;42713;42.676;23.352;2023-04-03T12:28:51;8.32;;;2.28;;
56830;SDS011;42713;42.676;23.352;2023-04-03T12:31:18;5.97;;;2.13;;
56830;SDS011;42713;42.676;23.352;2023-04-03T12:39:33;6.25;;;2.15;;
56830;SDS011;42713;42.676;23.352;2023-04-03T12:42:17;6.93;;;2.30;;
56830;SDS011;42713;42.676;23.352;2023-04-03T12:44:56;9.20;;;2.63;;
56830;SDS011;42713;42.676;23.352;2023-04-03T12:47:31;7.63;;;2.78;;
56830;SDS011;42713;42.676;23.352;2023-04-03T12:50:03;8.73;;;2.90;;
56830;SDS011;42713;42.676;23.352;2023-04-03T12:52:41;9.27;;;3.28;;
56830;SDS011;42713;42.676;23.352;2023-04-03T12:55:15;10.27;;;3.03;;
56830;SDS011;42713;42.676;23.352;2023-04-03T12:57:42;9.45;;;3.47;;
56830;SDS011;42713;42.676;23.352;2023-04-03T13:00:20;7.70;;;3.40;;
56830;SDS011;42713;42.676;23.352;2023-04-03T13:02:52;9.82;;;3.35;;
56830;SDS011;42713;42.676;23.352;2023-04-03T13:05:18;8.40;;;3.58;;
56830;SDS011;42713;42.676;23.352;2023-04-03T13:07:59;8.48;;;3.63;;
56830;SDS011;42713;42.676;23.352;2023-04-03T13:10:28;12.00;;;3.65;;
56830;SDS011;42713;42.676;23.352;2023-04-03T13:12:56;7.93;;;3.67;;
56830;SDS011;42713;42.676;23.352;2023-04-03T13:15:28;8.63;;;3.88;;
56830;SDS011;42713;42.676;23.352;2023-04-03T13:18:04;10.10;;;3.78;;
56830;SDS011;42713;42.676;23.352;2023-04-03T13:20:31;7.60;;;3.55;;
56830;SDS011;42713;42.676;23.352;2023-04-03T13:25:30;12.35;;;4.40;;
56830;SDS011;42713;42.676;23.352;2023-04-03T13:27:57;10.10;;;4.43;;
56830;SDS011;42713;42.676;23.352;2023-04-03T13:32:51;9.70;;;4.53;;
56830;SDS011;42713;42.676;23.352;2023-04-03T13:35:27;10.80;;;4.53;;
56830;SDS011;42713;42.676;23.352;2023-04-03T13:38:06;9.25;;;4.18;;
56830;SDS011;42713;42.676;23.352;2023-04-03T13:40:48;9.00;;;4.43;;
56830;SDS011;42713;42.676;23.352;2023-04-03T13:43:25;9.32;;;4.13;;
56830;SDS011;42713;42.676;23.352;2023-04-03T13:45:54;10.50;;;4.05;;
56830;SDS011;42713;42.676;23.352;2023-04-03T13:48:45;9.48;;;3.97;;
56830;SDS011;42713;42.676;23.352;2023-04-03T13:53:43;7.63;;;3.50;;
56830;SDS011;42713;42.676;23.352;2023-04-03T13:56:19;9.27;;;3.72;;
56830;SDS011;42713;42.676;23.352;2023-04-03T13:59:34;8.90;;;4.00;;
56830;SDS011;42713;42.676;23.352;2023-04-03T14:01:46;8.85;;;3.70;;
56830;SDS011;42713;42.676;23.352;2023-04-03T14:04:23;8.20;;;3.80;;
56830;SDS011;42713;42.676;23.352;2023-04-03T14:06:52;9.35;;;3.78;;
56830;SDS011;42713;42.676;23.352;2023-04-03T14:09:19;8.93;;;4.00;;
56830;SDS011;42713;42.676;23.352;2023-04-03T14:11:47;9.35;;;4.53;;
56830;SDS011;42713;42.676;23.352;2023-04-03T14:14:20;7.85;;;3.97;;
56830;SDS011;42713;42.676;23.352;2023-04-03T14:16:51;10.70;;;5.00;;
56830;SDS011;42713;42.676;23.352;2023-04-03T14:19:21;9.88;;;4.82;;
56830;SDS011;42713;42.676;23.352;2023-04-03T14:21:54;8.95;;;4.50;;
56830;SDS011;42713;42.676;23.352;2023-04-03T14:24:21;8.95;;;4.18;;
56830;SDS011;42713;42.676;23.352;2023-04-03T14:26:51;9.25;;;4.57;;
56830;SDS011;42713;42.676;23.352;2023-04-03T14:29:18;12.10;;;5.03;;
56830;SDS011;42713;42.676;23.352;2023-04-03T14:31:45;8.93;;;3.88;;
56830;SDS011;42713;42.676;23.352;2023-04-03T14:34:13;7.03;;;2.80;;
56830;SDS011;42713;42.676;23.352;2023-04-03T14:36:42;8.10;;;2.90;;
56830;SDS011;42713;42.676;23.352;2023-04-03T14:39:17;7.85;;;3.30;;
56830;SDS011;42713;42.676;23.352;2023-04-03T14:41:43;9.57;;;2.95;;
56830;SDS011;42713;42.676;23.352;2023-04-03T14:44:09;8.65;;;3.47;;
56830;SDS011;42713;42.676;23.352;2023-04-03T14:46:36;10.80;;;5.20;;
56830;SDS011;42713;42.676;23.352;2023-04-03T14:49:03;16.20;;;5.18;;
56830;SDS011;42713;42.676;23.352;2023-04-03T14:51:37;10.00;;;3.67;;
56830;SDS011;42713;42.676;23.352;2023-04-03T14:54:03;8.27;;;3.42;;
56830;SDS011;42713;42.676;23.352;2023-04-03T14:56:28;8.18;;;3.20;;
56830;SDS011;42713;42.676;23.352;2023-04-03T14:59:00;10.15;;;3.10;;
56830;SDS011;42713;42.676;23.352;2023-04-03T15:01:27;6.15;;;2.42;;
56830;SDS011;42713;42.676;23.352;2023-04-03T15:03:53;6.35;;;2.35;;
56830;SDS011;42713;42.676;23.352;2023-04-03T15:06:19;6.63;;;2.60;;
56830;SDS011;42713;42.676;23.352;2023-04-03T15:08:46;6.07;;;2.50;;
56830;SDS011;42713;42.676;23.352;2023-04-03T15:11:13;5.70;;;2.45;;
56830;SDS011;42713;42.676;23.352;2023-04-03T15:13:39;5.85;;;2.33;;
56830;SDS011;42713;42.676;23.352;2023-04-03T15:16:14;7.55;;;2.30;;
56830;SDS011;42713;42.676;23.352;2023-04-03T15:18:42;7.75;;;2.00;;
56830;SDS011;42713;42.676;23.352;2023-04-03T15:21:08;5.70;;;2.20;;
56830;SDS011;42713;42.676;23.352;2023-04-03T15:23:34;5.60;;;2.10;;
56830;SDS011;42713;42.676;23.352;2023-04-03T15:25:59;7.63;;;2.30;;
56830;SDS011;42713;42.676;23.352;2023-04-03T15:28:27;4.55;;;2.00;;
56830;SDS011;42713;42.676;23.352;2023-04-03T15:30:58;5.28;;;2.10;;
56830;SDS011;42713;42.676;23.352;2023-04-03T15:33:24;6.65;;;2.13;;
56830;SDS011;42713;42.676;23.352;2023-04-03T15:35:50;7.38;;;2.10;;
56830;SDS011;42713;42.676;23.352;2023-04-03T15:38:15;6.03;;;2.42;;
56830;SDS011;42713;42.676;23.352;2023-04-03T15:40:41;5.15;;;2.17;;
56830;SDS011;42713;42.676;23.352;2023-04-03T15:43:09;7.05;;;2.50;;
56830;SDS011;42713;42.676;23.352;2023-04-03T15:45:35;5.80;;;2.08;;
56830;SDS011;42713;42.676;23.352;2023-04-03T15:48:02;4.97;;;2.20;;
56830;SDS011;42713;42.676;23.352;2023-04-03T15:50:28;8.07;;;2.50;;
56830;SDS011;42713;42.676;23.352;2023-04-03T15:52:54;6.63;;;2.20;;
56830;SDS011;42713;42.676;23.352;2023-04-03T15:55:21;6.43;;;2.28;;
56830;SDS011;42713;42.676;23.352;2023-04-03T15:57:48;8.52;;;2.78;;
56830;SDS011;42713;42.676;23.352;2023-04-03T16:00:14;8.15;;;3.08;;
56830;SDS011;42713;42.676;23.352;2023-04-03T16:02:40;5.95;;;2.58;;
56830;SDS011;42713;42.676;23.352;2023-04-03T16:05:06;8.15;;;3.10;;
56830;SDS011;42713;42.676;23.352;2023-04-03T16:07:33;6.45;;;2.70;;
56830;SDS011;42713;42.676;23.352;2023-04-03T16:09:59;7.18;;;3.10;;